Relevés horaires St-Hubert (Belgique)


Relevés horaires à St-Hubert - Vendredi 06 Avr. 2018
Heure UTC1 Température [°C] Vent [km/h] Hum. [%] Pres.4 [hPa] Visi. [Km] Nébu. [octa] Préc.5 [mm] Cond.
2m. Res. Ros. Dir.2 Vit. Moy. Raf.3
23:00 8.0 6 0.3 ESE 11.1 13.0 20.4 58 1013.1(-0.3/3h) 45 0/8 -- --
22:00 8.4 6.5 -0.1 SE 11.1 14.8 24.1 55 1013(-0.5/3h) 45 0/8 -- --
21:00 8.6 6.5 0.3 ESE 13.0 14.8 25.9 56 1013.2(-0.3/3h) 45 0/8 -- --
20:00 9.3 7.1 -- ESE 14.8 14.8 25.9 -- 1013.1(-0.7/3h) 50 0/8 -- --
19:00 9.7 7.6 -0.8 ESE 14.8 14.8 20.4 48 1013.3(-1.1/3h) 45 0/8 -- --
18:00 10.4 8.9 -- ESE 11.1 14.8 22.2 -- 1013.3(-1.2/3h) 45 0/8 0/12h
--
17:00 11.6 10.4 -0.7 SE 11.1 11.1 20.4 42 1013.5(-1.5/3h) 35 0/8 -- --
16:00 12.4 11.3 -0.1 SE 11.1 13.0 20.4 42 1013.9(-1.7/3h) 40 0/8 -- --
15:00 12.5 11.5 1.2 SE 11.1 14.8 22.2 46 1014.2(-1.9/3h) 40 0/8 -- --
14:00 11.9 11 0.9 SE 9.3 13.0 22.2 47 1015(-1.8/3h) 40 0/8 -- --
14:00 11.9 11 0.9 SE 9.3 13.0 22.2 47 1015(-1.8/3h) 40 0/8 -- --
13:00 11.6 10.1 0.9 SE 13.0 14.8 22.2 48 1015.8(-1.5/3h) 40 0/8 -- --
13:00 11.6 10.1 0.9 SE 13.0 14.8 22.2 48 1015.8(-1.5/3h) 40 0/8 -- --
12:00 10.1 8.6 0.2 SE 11.1 14.8 24.1 50 1016.8(-1.2/3h) 35 0/8 0/6h
--
12:00 10.1 8.6 0.2 SE 11.1 14.8 24.1 50 1016.8(-1.2/3h) 35 0/8 0/6h
--
11:00 8.6 6.8 -0.5 SE 11.1 14.8 24.1 53 1017.8(-0.7/3h) 30 0/8 -- --
10:00 6.7 4.5 -1.5 SE 11.1 14.8 24.1 56 1018.7(-0.7/3h) 35 0/8 -- --
10:00 6.7 4.5 -1.5 SE 11.1 14.8 24.1 56 1018.7(-0.7/3h) 35 0/8 -- --
09:00 5.4 2.6 -1.3 SE 13.0 14.8 24.1 62 1019.2(-0.5/3h) 30 0/8 -- --
08:00 3.8 0.6 -1.0 ESE 13.0 14.8 22.2 71 1019.7(-0.8/3h) 30 0/8 -- --
07:00 2.0 -1.6 -2.1 SE 13.0 14.8 24.1 74 1020.6(-0.8/3h) 25 0/8 -- --
06:00 0.7 -3.5 -2.2 ESE 14.8 14.8 20.4 81 1021(-1.2/3h) 24 0/8 0/12h
--
05:00 0.5 -3 -1.9 ESE 11.1 11.1 18.5 84 1021.4(-1.2/3h) 30 0/8 -- --
04:00 1.1 -2.3 -1.4 ESE 11.1 11.1 16.7 83 1021.7(-1.2/3h) 30 0/8 -- --

1 Coordinated Universal Time. Actuellement il est 17:00 locale et 15:00 UTC.

2 Le vent souffle depuis la direction indiquée vers la direction oposée.

3 Les rafales max. sont disponible 40 min après l'heure du relevé.

4 Pour les stations d'altitude (plus de 600m) le géopotentiel du niveau le plus proche de la pression obligatoire est indiqué.

5 Les stations disposant d'un diffuseur peuvent indiquer "trace". Cela signifie que des précipitations ont touchés le sol mais que la quantité est inférieure à 0.1 mm.

Récapitulatif de la journée
Température [°C] Vent [km/h] Ensoleillement4 [h] Precipitations totale5 [mm] Pression [Hpa]
Min1 Max.2 Moy.3 Max. Min Max.
-0.6 12.7 14 25.9 0 h 0 min 0 1013.0 1021.7

1 Température minimale relevée entre 18:00 UTC la veille et 18:00 UTC le jour donné.

2 Température maximale relevée entre 06:00 UTC le jour donné et 06:00 UTC le lendemain.

3 Vent moyen de la journée basé sur les relevés horaires.

4 Ensoleillement en heures relevé entre 06:00 UTC la veille et 06:00 UTC le jour donné.

5 Précipitations totales tombées entre 06:00 UTC la jour donné et 06:00 UTC le lendemain.

Graphiques horaires